Time;durP1;ratioP1;P1;durP2;ratioP2;P2;SDS_P1;SDS_P2;PMS_P1;PMS_P2;Temp;Humidity;BMP_temperature;BMP_pressure;BME280_temperature;BME280_humidity;BME280_pressure;Samples;Min_cycle;Max_cycle;Signal;HPM_P1;HPM_P2
2022/04/23 00:01:34;;;;;;;10.68;7.60;;;;;;;;;;5015896;28;20069;-68
2022/04/23 00:04:03;;;;;;;10.88;7.28;;;;;;;;;;5016207;28;20481;-69
2022/04/23 00:06:33;;;;;;;11.10;7.45;;;;;;;;;;5015956;28;20042;-69
2022/04/23 00:09:03;;;;;;;9.52;6.88;;;;;;;;;;5016206;28;20066;-68
2022/04/23 00:11:34;;;;;;;14.10;7.55;;;;;;;;;;5016180;28;20069;-69
2022/04/23 00:14:09;;;;;;;11.75;8.10;;;;;;;;;;5016098;28;20049;-69
2022/04/23 00:16:41;;;;;;;9.32;7.70;;;;;;;;;;5015932;28;20481;-69
2022/04/23 00:19:08;;;;;;;12.02;7.95;;;;;;;;;;5016019;28;20448;-69
2022/04/23 00:21:40;;;;;;;10.02;7.93;;;;;;;;;;5015718;28;20042;-69
2022/04/23 00:24:07;;;;;;;11.77;7.93;;;;;;;;;;5015851;28;20065;-69
2022/04/23 00:26:40;;;;;;;11.88;8.38;;;;;;;;;;4997951;28;20038;-69
2022/04/23 00:29:12;;;;;;;10.48;8.15;;;;;;;;;;5015656;28;20034;-69
2022/04/23 00:31:46;;;;;;;14.02;8.10;;;;;;;;;;5016169;28;20065;-69
2022/04/23 00:34:14;;;;;;;17.13;8.85;;;;;;;;;;5015938;28;20058;-69
2022/04/23 00:36:44;;;;;;;12.45;8.13;;;;;;;;;;5015088;28;20041;-69
2022/04/23 00:39:17;;;;;;;11.52;8.68;;;;;;;;;;5015523;28;20038;-69
2022/04/23 00:41:46;;;;;;;12.30;8.30;;;;;;;;;;5015326;28;20062;-69
2022/04/23 00:44:16;;;;;;;17.98;9.90;;;;;;;;;;5015096;28;20598;-69
2022/04/23 00:46:46;;;;;;;14.18;9.43;;;;;;;;;;5015401;28;20037;-69
2022/04/23 00:49:15;;;;;;;12.07;9.13;;;;;;;;;;5015359;28;20077;-69
2022/04/23 00:51:43;;;;;;;12.63;8.57;;;;;;;;;;5015258;28;20096;-69
2022/04/23 00:54:12;;;;;;;12.00;8.40;;;;;;;;;;5015068;28;20120;-69
2022/04/23 00:56:40;;;;;;;12.38;9.23;;;;;;;;;;5015070;28;20057;-69
2022/04/23 00:59:14;;;;;;;14.02;9.57;;;;;;;;;;5015359;28;20077;-69
2022/04/23 01:01:48;;;;;;;12.65;8.95;;;;;;;;;;5015183;28;20129;-69
2022/04/23 01:04:16;;;;;;;12.15;9.32;;;;;;;;;;5015212;28;20052;-69
2022/04/23 01:06:45;;;;;;;12.63;9.95;;;;;;;;;;5014559;28;20124;-69
2022/04/23 01:09:16;;;;;;;14.65;9.95;;;;;;;;;;5014891;28;20061;-69
2022/04/23 01:11:43;;;;;;;11.35;9.48;;;;;;;;;;5014670;28;20042;-69
2022/04/23 01:14:18;;;;;;;15.18;10.30;;;;;;;;;;5014867;28;20045;-69
2022/04/23 01:16:48;;;;;;;15.73;10.93;;;;;;;;;;5014767;28;20121;-68
2022/04/23 01:19:22;;;;;;;13.15;10.57;;;;;;;;;;5014873;28;20046;-69
2022/04/23 01:22:11;;;;;;;13.88;10.70;;;;;;;;;;5014153;28;20033;-69
2022/04/23 01:24:39;;;;;;;14.88;11.00;;;;;;;;;;5014531;28;20042;-69
2022/04/23 01:27:18;;;;;;;14.48;11.45;;;;;;;;;;5014112;28;20042;-69
2022/04/23 01:29:46;;;;;;;18.95;11.80;;;;;;;;;;5014560;28;20049;-69
2022/04/23 01:32:24;;;;;;;14.60;11.55;;;;;;;;;;5014834;28;20038;-69
2022/04/23 01:34:51;;;;;;;16.00;12.02;;;;;;;;;;5014215;28;20547;-69
2022/04/23 01:37:44;;;;;;;16.50;13.35;;;;;;;;;;5014445;28;20075;-69
2022/04/23 01:40:39;;;;;;;17.65;13.05;;;;;;;;;;5014581;28;20046;-69
2022/04/23 01:43:08;;;;;;;16.60;13.18;;;;;;;;;;5014348;28;20053;-69
2022/04/23 01:46:00;;;;;;;22.80;13.45;;;;;;;;;;5014431;28;20038;-69
2022/04/23 01:48:32;;;;;;;16.77;13.07;;;;;;;;;;5014096;28;20477;-68
2022/04/23 01:51:05;;;;;;;17.77;12.93;;;;;;;;;;5013740;28;20544;-69
2022/04/23 01:53:35;;;;;;;17.30;12.95;;;;;;;;;;5014407;28;20113;-69
2022/04/23 01:56:07;;;;;;;18.90;13.77;;;;;;;;;;5014047;28;20045;-69
2022/04/23 01:58:34;;;;;;;20.13;13.35;;;;;;;;;;5014038;28;20042;-69
2022/04/23 02:01:06;;;;;;;20.00;14.15;;;;;;;;;;5013851;28;20520;-69
2022/04/23 02:03:39;;;;;;;18.63;14.18;;;;;;;;;;5014257;28;20057;-69
2022/04/23 02:06:13;;;;;;;17.58;13.93;;;;;;;;;;5014283;28;20374;-68
2022/04/23 02:08:42;;;;;;;20.27;14.05;;;;;;;;;;5014145;28;20046;-69
2022/04/23 02:11:13;;;;;;;20.90;14.15;;;;;;;;;;5014002;28;20459;-69
2022/04/23 02:14:05;;;;;;;20.52;14.57;;;;;;;;;;5014089;28;20124;-68
2022/04/23 02:16:35;;;;;;;19.77;14.90;;;;;;;;;;5013814;28;20549;-68
2022/04/23 02:19:04;;;;;;;19.40;15.13;;;;;;;;;;5014075;28;20046;-68
2022/04/23 02:21:34;;;;;;;21.95;16.17;;;;;;;;;;5013851;28;20046;-69
2022/04/23 02:24:09;;;;;;;20.70;15.70;;;;;;;;;;5013721;28;20034;-68
2022/04/23 02:26:39;;;;;;;22.38;16.15;;;;;;;;;;5013734;28;20046;-69
2022/04/23 02:29:13;;;;;;;19.70;15.98;;;;;;;;;;5013718;28;20048;-69
2022/04/23 02:31:40;;;;;;;21.23;15.65;;;;;;;;;;5013589;28;20060;-68
2022/04/23 02:34:08;;;;;;;21.67;15.57;;;;;;;;;;5011465;28;20054;-68
2022/04/23 02:36:37;;;;;;;20.77;16.40;;;;;;;;;;5013601;28;20073;-68
2022/04/23 02:39:08;;;;;;;21.27;16.13;;;;;;;;;;5013788;28;20038;-68
2022/04/23 02:41:37;;;;;;;23.00;17.20;;;;;;;;;;5013420;28;20049;-69
2022/04/23 02:44:09;;;;;;;22.63;17.58;;;;;;;;;;5013374;28;20551;-69
2022/04/23 02:46:38;;;;;;;28.92;19.85;;;;;;;;;;5013309;28;20100;-69
2022/04/23 02:49:06;;;;;;;28.95;19.20;;;;;;;;;;5013841;28;20057;-68
2022/04/23 02:51:37;;;;;;;24.13;18.27;;;;;;;;;;5013378;28;20046;-68
2022/04/23 02:54:06;;;;;;;23.88;18.23;;;;;;;;;;5013267;28;20065;-68
2022/04/23 02:56:36;;;;;;;26.00;17.58;;;;;;;;;;5013740;28;20042;-68
2022/04/23 02:59:07;;;;;;;24.25;17.02;;;;;;;;;;5013288;28;20432;-68
2022/04/23 03:01:36;;;;;;;25.05;18.00;;;;;;;;;;5013315;28;20407;-69
2022/04/23 03:04:09;;;;;;;29.15;19.25;;;;;;;;;;5013606;28;20408;-69
2022/04/23 03:06:37;;;;;;;22.08;17.85;;;;;;;;;;5013129;28;20038;-68
2022/04/23 03:09:07;;;;;;;26.30;19.08;;;;;;;;;;5013243;28;20053;-68
2022/04/23 03:11:35;;;;;;;28.50;19.95;;;;;;;;;;5013044;28;20053;-68
2022/04/23 03:14:07;;;;;;;25.27;20.33;;;;;;;;;;5013201;28;20042;-68
2022/04/23 03:16:38;;;;;;;27.08;21.50;;;;;;;;;;5013008;28;20041;-69
2022/04/23 03:19:07;;;;;;;27.08;21.70;;;;;;;;;;5013231;28;20042;-69
2022/04/23 03:22:00;;;;;;;26.73;20.90;;;;;;;;;;5013257;28;20064;-68
2022/04/23 03:24:32;;;;;;;27.90;21.35;;;;;;;;;;5013309;28;20037;-69
2022/04/23 03:27:01;;;;;;;27.80;20.45;;;;;;;;;;5013148;28;20065;-69
2022/04/23 03:29:31;;;;;;;28.00;21.38;;;;;;;;;;5013151;28;20046;-68
2022/04/23 03:35:11;;;;;;;28.17;21.25;;;;;;;;;;5013030;28;20421;-69
2022/04/23 03:38:03;;;;;;;29.00;21.48;;;;;;;;;;5012925;28;20057;-69
2022/04/23 03:40:36;;;;;;;28.75;20.67;;;;;;;;;;5012917;28;20046;-68
2022/04/23 03:43:05;;;;;;;25.10;19.13;;;;;;;;;;5012411;28;20101;-68
2022/04/23 03:45:36;;;;;;;25.70;19.40;;;;;;;;;;5015310;28;20046;-68
2022/04/23 03:48:12;;;;;;;30.10;21.17;;;;;;;;;;5016742;28;20545;-68
2022/04/23 03:50:42;;;;;;;27.60;20.83;;;;;;;;;;5016354;28;20092;-68
2022/04/23 03:53:12;;;;;;;26.63;19.92;;;;;;;;;;5016288;28;20050;-68
2022/04/23 03:55:46;;;;;;;27.65;19.83;;;;;;;;;;5016157;28;20048;-68
2022/04/23 03:58:14;;;;;;;27.75;20.60;;;;;;;;;;5016823;28;20088;-67
2022/04/23 04:00:43;;;;;;;25.55;19.38;;;;;;;;;;5016142;28;20057;-68
2022/04/23 04:03:16;;;;;;;25.25;19.05;;;;;;;;;;5016144;28;20207;-68
2022/04/23 04:05:43;;;;;;;24.95;18.25;;;;;;;;;;5015881;28;20037;-68
2022/04/23 04:08:12;;;;;;;22.92;18.63;;;;;;;;;;5015251;28;20526;-68
2022/04/23 04:10:43;;;;;;;25.48;18.70;;;;;;;;;;5016313;28;20061;-69
2022/04/23 04:13:11;;;;;;;31.15;20.38;;;;;;;;;;5015509;28;20049;-70
2022/04/23 04:16:03;;;;;;;27.35;19.08;;;;;;;;;;5015557;28;20046;-70
2022/04/23 04:22:14;;;;;;;66.30;47.05;;;;;;;;;;5014546;28;20069;-69
2022/04/23 04:25:07;;;;;;;40.50;30.15;;;;;;;;;;5015890;28;20038;-69
2022/04/23 04:27:39;;;;;;;42.08;32.10;;;;;;;;;;5015791;28;20046;-71
2022/04/23 04:30:17;;;;;;;35.28;26.88;;;;;;;;;;5015642;28;20092;-68
2022/04/23 04:32:50;;;;;;;24.13;19.33;;;;;;;;;;5015934;28;20438;-69
2022/04/23 04:35:18;;;;;;;30.13;22.92;;;;;;;;;;5015152;28;20054;-69
2022/04/23 04:38:11;;;;;;;28.17;21.85;;;;;;;;;;5015824;28;20042;-69
2022/04/23 04:40:44;;;;;;;20.60;14.60;;;;;;;;;;5015696;28;20129;-69
2022/04/23 04:43:12;;;;;;;22.80;17.55;;;;;;;;;;5015581;28;20084;-69
2022/04/23 04:45:46;;;;;;;26.33;19.40;;;;;;;;;;5015473;28;20042;-69
2022/04/23 04:48:15;;;;;;;19.55;15.48;;;;;;;;;;5014987;28;20038;-69
2022/04/23 04:50:44;;;;;;;21.52;15.20;;;;;;;;;;4998039;28;20045;-69
2022/04/23 04:53:11;;;;;;;24.10;16.58;;;;;;;;;;5014667;28;20061;-69
2022/04/23 04:55:42;;;;;;;25.30;18.60;;;;;;;;;;5014916;28;20038;-69
2022/04/23 04:58:10;;;;;;;20.75;15.55;;;;;;;;;;5014760;28;20516;-69
2022/04/23 05:00:37;;;;;;;20.73;15.07;;;;;;;;;;5003949;28;20038;-69
2022/04/23 05:03:11;;;;;;;18.35;15.95;;;;;;;;;;5015114;28;20045;-69
2022/04/23 05:05:44;;;;;;;21.67;15.90;;;;;;;;;;5014725;28;20046;-69
2022/04/23 05:08:15;;;;;;;25.67;19.00;;;;;;;;;;5014896;28;20489;-70
2022/04/23 05:10:44;;;;;;;23.15;17.40;;;;;;;;;;5015077;28;20148;-70
2022/04/23 05:13:13;;;;;;;20.65;17.02;;;;;;;;;;5014730;28;20073;-70
2022/04/23 05:15:43;;;;;;;20.13;16.15;;;;;;;;;;4980462;28;20037;-70
2022/04/23 05:18:11;;;;;;;45.42;33.10;;;;;;;;;;5014075;28;20125;-70
2022/04/23 05:20:38;;;;;;;57.83;43.13;;;;;;;;;;5012857;28;20052;-70
2022/04/23 05:23:08;;;;;;;18.00;14.48;;;;;;;;;;5014443;28;20044;-70
2022/04/23 05:25:36;;;;;;;30.73;22.88;;;;;;;;;;5014363;28;20060;-71
2022/04/23 05:28:04;;;;;;;48.65;37.80;;;;;;;;;;5014312;28;20041;-70
2022/04/23 05:30:37;;;;;;;39.33;27.95;;;;;;;;;;5014194;28;20493;-70
2022/04/23 05:33:09;;;;;;;18.92;15.65;;;;;;;;;;5014408;28;20050;-69
2022/04/23 05:35:36;;;;;;;36.08;27.52;;;;;;;;;;5014839;28;20053;-69
2022/04/23 05:38:29;;;;;;;25.10;19.85;;;;;;;;;;5014431;28;20512;-71
2022/04/23 05:41:03;;;;;;;30.83;22.48;;;;;;;;;;5014441;28;20041;-71
2022/04/23 05:43:38;;;;;;;19.75;15.48;;;;;;;;;;5014357;28;20126;-71
2022/04/23 05:46:06;;;;;;;17.83;14.57;;;;;;;;;;5014540;28;20046;-71
2022/04/23 05:48:36;;;;;;;14.98;13.38;;;;;;;;;;5014173;28;20506;-70
2022/04/23 05:51:05;;;;;;;14.60;12.05;;;;;;;;;;5014266;28;20116;-70
2022/04/23 05:53:38;;;;;;;22.48;16.10;;;;;;;;;;5014355;28;20041;-71
2022/04/23 05:56:08;;;;;;;22.25;16.00;;;;;;;;;;5014032;28;20125;-71
2022/04/23 05:58:36;;;;;;;14.10;11.68;;;;;;;;;;5013870;28;20103;-74
2022/04/23 06:01:29;;;;;;;13.57;11.25;;;;;;;;;;5014381;28;20052;-70
2022/04/23 06:03:58;;;;;;;21.10;16.55;;;;;;;;;;5013950;28;20049;-69
2022/04/23 06:06:28;;;;;;;14.35;12.27;;;;;;;;;;5013717;28;20042;-70
2022/04/23 06:08:57;;;;;;;16.60;13.23;;;;;;;;;;5012679;28;20042;-69
2022/04/23 06:11:24;;;;;;;14.80;12.00;;;;;;;;;;5010677;28;20480;-69
2022/04/23 06:13:56;;;;;;;15.85;13.98;;;;;;;;;;5013341;28;20149;-68
2022/04/23 06:16:24;;;;;;;13.98;12.40;;;;;;;;;;5013409;28;20042;-69
2022/04/23 06:18:53;;;;;;;14.98;12.15;;;;;;;;;;5013628;28;20038;-69
2022/04/23 06:21:26;;;;;;;20.05;14.77;;;;;;;;;;4996790;28;20079;-69
2022/04/23 06:23:53;;;;;;;13.82;11.90;;;;;;;;;;5013837;28;20129;-70
2022/04/23 06:26:23;;;;;;;15.02;13.32;;;;;;;;;;5013657;28;20045;-70
2022/04/23 06:28:51;;;;;;;16.13;14.38;;;;;;;;;;5013686;28;20042;-71
2022/04/23 06:31:22;;;;;;;20.42;14.23;;;;;;;;;;5013438;28;20061;-71
2022/04/23 06:33:52;;;;;;;16.33;10.88;;;;;;;;;;5012359;28;20532;-70
2022/04/23 06:36:25;;;;;;;14.48;11.75;;;;;;;;;;5013407;28;20038;-71
2022/04/23 06:39:19;;;;;;;21.10;15.70;;;;;;;;;;5013576;28;20117;-71
2022/04/23 06:41:46;;;;;;;21.27;15.43;;;;;;;;;;5013889;28;20382;-71
2022/04/23 06:44:15;;;;;;;19.02;15.02;;;;;;;;;;5013119;28;20046;-71
2022/04/23 06:46:45;;;;;;;12.38;11.05;;;;;;;;;;5013279;28;20038;-69
2022/04/23 06:49:37;;;;;;;19.52;13.50;;;;;;;;;;4995898;28;20049;-69
2022/04/23 06:52:05;;;;;;;22.45;17.38;;;;;;;;;;5013964;28;20076;-69
2022/04/23 06:54:36;;;;;;;16.98;12.10;;;;;;;;;;5013302;28;20449;-70
2022/04/23 06:57:11;;;;;;;15.35;12.10;;;;;;;;;;5013320;28;20088;-69
2022/04/23 06:59:38;;;;;;;17.95;13.15;;;;;;;;;;5013521;28;20473;-70
2022/04/23 07:02:31;;;;;;;13.90;11.10;;;;;;;;;;5012913;28;20034;-70
2022/04/23 07:05:23;;;;;;;24.45;20.27;;;;;;;;;;5013300;28;20042;-69
2022/04/23 07:08:01;;;;;;;19.60;17.13;;;;;;;;;;5013549;28;20062;-70
2022/04/23 07:10:40;;;;;;;14.10;10.63;;;;;;;;;;5013494;28;20042;-70
2022/04/23 07:13:35;;;;;;;14.65;11.85;;;;;;;;;;5013309;28;20117;-70
2022/04/23 07:16:03;;;;;;;15.55;13.20;;;;;;;;;;5012937;28;20045;-70
2022/04/23 07:18:35;;;;;;;17.20;12.95;;;;;;;;;;5013160;28;20100;-71
2022/04/23 07:21:08;;;;;;;20.50;13.98;;;;;;;;;;5017016;28;20073;-71
2022/04/23 07:24:05;;;;;;;13.40;10.95;;;;;;;;;;5016910;28;20080;-69
2022/04/23 07:26:35;;;;;;;13.95;9.73;;;;;;;;;;5017392;28;20038;-69
2022/04/23 07:29:07;;;;;;;12.82;10.75;;;;;;;;;;5016642;28;20056;-71
2022/04/23 07:31:37;;;;;;;14.90;11.75;;;;;;;;;;5017261;28;20045;-72
2022/04/23 07:39:41;;;;;;;13.73;10.40;;;;;;;;;;5016575;28;20070;-72
2022/04/23 07:42:11;;;;;;;14.32;9.05;;;;;;;;;;5016618;28;20036;-77
2022/04/23 07:44:38;;;;;;;14.63;9.30;;;;;;;;;;5017071;28;20368;-73
2022/04/23 07:47:17;;;;;;;15.45;10.75;;;;;;;;;;5016197;28;20405;-73
2022/04/23 07:49:45;;;;;;;17.63;13.88;;;;;;;;;;5016434;28;20050;-73
2022/04/23 07:52:21;;;;;;;13.02;10.13;;;;;;;;;;5016308;28;20405;-72
2022/04/23 07:54:48;;;;;;;14.73;9.43;;;;;;;;;;5016241;28;20041;-73
2022/04/23 07:57:21;;;;;;;16.45;11.30;;;;;;;;;;5016362;28;20069;-73
2022/04/23 07:59:53;;;;;;;21.35;15.98;;;;;;;;;;5016206;28;20535;-72
2022/04/23 08:02:22;;;;;;;19.58;15.88;;;;;;;;;;5016253;28;20493;-72
2022/04/23 08:04:52;;;;;;;34.00;30.23;;;;;;;;;;5015987;28;20504;-73
2022/04/23 08:07:28;;;;;;;17.80;12.48;;;;;;;;;;4999166;28;20080;-72
2022/04/23 08:09:59;;;;;;;21.05;16.48;;;;;;;;;;5016285;28;20038;-72
2022/04/23 08:12:29;;;;;;;15.50;11.20;;;;;;;;;;5015743;28;20049;-73
2022/04/23 08:15:03;;;;;;;16.73;10.98;;;;;;;;;;5016252;28;19921;-72
2022/04/23 08:17:38;;;;;;;17.57;11.23;;;;;;;;;;5016063;28;20058;-71
2022/04/23 08:20:15;;;;;;;;;;;;;;;;;;5015564;28;20070;-72
2022/04/23 08:22:44;;;;;;;17.73;10.70;;;;;;;;;;5015285;28;19956;-71
2022/04/23 08:25:36;;;;;;;12.65;7.78;;;;;;;;;;5016061;28;20049;-72
2022/04/23 08:31:21;;;;;;;8.00;6.15;;;;;;;;;;5014409;28;20046;-71
2022/04/23 08:33:57;;;;;;;13.35;7.28;;;;;;;;;;5014186;28;20089;-70
2022/04/23 08:36:35;;;;;;;11.52;6.72;;;;;;;;;;5015651;28;20042;-72
2022/04/23 08:39:11;;;;;;;8.63;4.82;;;;;;;;;;5015830;28;20543;-72
2022/04/23 08:41:39;;;;;;;11.68;6.25;;;;;;;;;;5015440;28;20041;-75
2022/04/23 08:44:11;;;;;;;14.80;7.25;;;;;;;;;;5014869;28;20034;-73
2022/04/23 08:47:04;;;;;;;12.15;6.88;;;;;;;;;;5015413;28;20101;-73
2022/04/23 08:49:38;;;;;;;8.52;4.35;;;;;;;;;;5015359;28;20062;-72
2022/04/23 08:52:16;;;;;;;7.78;4.53;;;;;;;;;;5015246;28;20493;-73
2022/04/23 08:54:50;;;;;;;7.07;3.60;;;;;;;;;;5015263;28;20500;-73
2022/04/23 08:57:43;;;;;;;13.33;5.77;;;;;;;;;;4997694;28;20604;-73
2022/04/23 09:00:14;;;;;;;8.82;4.90;;;;;;;;;;5005951;28;20799;-73
2022/04/23 09:02:42;;;;;;;8.35;4.38;;;;;;;;;;4997288;28;20038;-81
2022/04/23 09:05:15;;;;;;;10.38;7.00;;;;;;;;;;4992805;28;20096;-81
2022/04/23 09:07:53;;;;;;;9.93;6.07;;;;;;;;;;5190818;23;20368;-84
2022/04/23 09:10:21;;;;;;;9.75;6.10;;;;;;;;;;5035351;28;20047;-86
2022/04/23 09:12:59;;;;;;;13.25;6.10;;;;;;;;;;5035268;28;20120;-84
2022/04/23 09:24:15;;;;;;;12.55;4.38;;;;;;;;;;5036591;28;20045;-86
2022/04/23 09:27:03;;;;;;;9.20;4.47;;;;;;;;;;5036140;28;20067;-88
2022/04/23 09:29:40;;;;;;;11.93;4.60;;;;;;;;;;5034550;28;20041;-88
2022/04/23 09:32:14;;;;;;;6.93;3.88;;;;;;;;;;5034514;28;20116;-85
2022/04/23 09:34:42;;;;;;;7.57;4.22;;;;;;;;;;5033777;28;20033;-85
2022/04/23 09:37:09;;;;;;;10.25;4.32;;;;;;;;;;5034332;28;20037;-86
2022/04/23 09:39:38;;;;;;;8.20;3.80;;;;;;;;;;5034298;28;20045;-86
2022/04/23 09:42:13;;;;;;;8.25;4.10;;;;;;;;;;5033673;28;20050;-87
2022/04/23 09:44:42;;;;;;;8.07;3.80;;;;;;;;;;5033828;28;20041;-82
2022/04/23 09:47:09;;;;;;;6.47;3.58;;;;;;;;;;5007060;28;20041;-81
2022/04/23 09:49:40;;;;;;;5.80;3.63;;;;;;;;;;5014309;28;20061;-79
2022/04/23 09:52:11;;;;;;;13.13;6.72;;;;;;;;;;5013977;28;20085;-81
2022/04/23 09:54:39;;;;;;;10.30;7.05;;;;;;;;;;5014330;28;20447;-80
2022/04/23 09:57:17;;;;;;;12.40;8.10;;;;;;;;;;5013912;28;20046;-81
2022/04/23 09:59:44;;;;;;;12.23;8.27;;;;;;;;;;5018870;28;20037;-82
2022/04/23 10:02:18;;;;;;;7.97;5.50;;;;;;;;;;5033754;28;20042;-80
2022/04/23 10:04:46;;;;;;;12.93;9.65;;;;;;;;;;5033430;28;20128;-80
2022/04/23 10:07:18;;;;;;;10.77;7.53;;;;;;;;;;5033391;28;20468;-82
2022/04/23 10:09:46;;;;;;;13.68;10.63;;;;;;;;;;5033261;28;20115;-80
2022/04/23 10:12:16;;;;;;;11.50;8.35;;;;;;;;;;5033598;28;20480;-81
2022/04/23 10:14:47;;;;;;;8.98;5.10;;;;;;;;;;5032761;28;20038;-80
2022/04/23 10:17:20;;;;;;;6.00;4.00;;;;;;;;;;5030610;28;20044;-84
2022/04/23 10:20:02;;;;;;;10.32;7.03;;;;;;;;;;5031388;28;20140;-82
2022/04/23 10:22:35;;;;;;;7.53;5.45;;;;;;;;;;5032395;28;20546;-85
2022/04/23 10:25:25;;;;;;;9.45;5.47;;;;;;;;;;5015446;28;20049;-79
2022/04/23 10:27:55;;;;;;;5.45;4.18;;;;;;;;;;5033476;28;20091;-80
2022/04/23 10:30:26;;;;;;;6.70;4.10;;;;;;;;;;5015550;28;20053;-80
2022/04/23 10:32:53;;;;;;;6.18;3.70;;;;;;;;;;5033111;28;20133;-74
2022/04/23 10:35:21;;;;;;;10.98;4.35;;;;;;;;;;5033202;28;20042;-79
2022/04/23 10:37:54;;;;;;;6.85;3.08;;;;;;;;;;5032950;28;20099;-79
2022/04/23 10:40:22;;;;;;;6.88;3.30;;;;;;;;;;5032836;28;20384;-79
2022/04/23 10:43:05;;;;;;;5.20;2.67;;;;;;;;;;5033176;28;20124;-81
2022/04/23 10:45:36;;;;;;;10.85;7.32;;;;;;;;;;5033154;28;20081;-80
2022/04/23 10:48:27;;;;;;;7.53;4.30;;;;;;;;;;5033517;28;20160;-81
2022/04/23 10:51:05;;;;;;;6.07;4.82;;;;;;;;;;5032207;28;20038;-80
2022/04/23 10:53:38;;;;;;;4.55;2.97;;;;;;;;;;5032219;28;20439;-81
2022/04/23 10:56:13;;;;;;;5.78;3.75;;;;;;;;;;5036941;28;20523;-83
2022/04/23 10:58:41;;;;;;;5.90;2.97;;;;;;;;;;5037036;28;20107;-81
2022/04/23 11:01:21;;;;;;;8.40;3.28;;;;;;;;;;5019529;28;20059;-79
2022/04/23 11:04:07;;;;;;;4.30;2.58;;;;;;;;;;5036994;28;20132;-81
2022/04/23 11:12:32;;;;;;;6.43;3.97;;;;;;;;;;5036759;28;20095;-81
2022/04/23 11:15:01;;;;;;;5.85;3.40;;;;;;;;;;5018161;28;20057;-81
2022/04/23 11:17:30;;;;;;;6.13;3.05;;;;;;;;;;5036625;28;20041;-83
2022/04/23 11:20:00;;;;;;;11.85;6.40;;;;;;;;;;5036060;28;20041;-80
2022/04/23 11:22:32;;;;;;;5.78;3.85;;;;;;;;;;5035346;28;20128;-82
2022/04/23 11:25:07;;;;;;;10.32;7.50;;;;;;;;;;5036419;28;20046;-80
2022/04/23 11:27:38;;;;;;;10.57;7.30;;;;;;;;;;5035013;28;20103;-78
2022/04/23 11:30:07;;;;;;;24.02;16.45;;;;;;;;;;5035603;28;20045;-78
2022/04/23 11:32:39;;;;;;;16.58;12.30;;;;;;;;;;5036777;28;20049;-80
2022/04/23 11:35:08;;;;;;;13.55;10.80;;;;;;;;;;5019551;28;20091;-80
2022/04/23 11:37:40;;;;;;;6.30;4.65;;;;;;;;;;5036209;28;20041;-80
2022/04/23 11:40:10;;;;;;;6.05;4.72;;;;;;;;;;5036726;28;20538;-78
2022/04/23 11:42:46;;;;;;;6.95;3.70;;;;;;;;;;5035997;28;20557;-79
2022/04/23 11:45:16;;;;;;;6.32;2.90;;;;;;;;;;5036171;28;20456;-79
2022/04/23 11:47:46;;;;;;;21.80;19.38;;;;;;;;;;5035734;28;20045;-80
2022/04/23 11:50:15;;;;;;;12.50;11.20;;;;;;;;;;5016897;28;20107;-81
2022/04/23 11:53:13;;;;;;;7.55;5.63;;;;;;;;;;5036021;28;20484;-77
2022/04/23 11:56:06;;;;;;;6.95;3.13;;;;;;;;;;5020895;28;20108;-79
2022/04/23 11:58:35;;;;;;;3.33;1.63;;;;;;;;;;5032868;28;20045;-80
2022/04/23 12:01:05;;;;;;;8.73;5.45;;;;;;;;;;5034795;28;20048;-80
2022/04/23 12:03:33;;;;;;;5.38;3.58;;;;;;;;;;5034444;28;20096;-77
2022/04/23 12:06:09;;;;;;;5.63;2.70;;;;;;;;;;5035782;28;20100;-75
2022/04/23 12:08:36;;;;;;;2.78;1.50;;;;;;;;;;5035696;28;20569;-76
2022/04/23 12:11:19;;;;;;;4.80;2.85;;;;;;;;;;5035686;28;20033;-73
2022/04/23 12:13:49;;;;;;;14.27;5.47;;;;;;;;;;5035225;28;20033;-73
2022/04/23 12:24:10;;;;;;;7.18;2.97;;;;;;;;;;5035270;28;20028;-73
2022/04/23 12:26:38;;;;;;;;;;;;;;;;;;5036418;28;20049;-73
2022/04/23 12:40:57;;;;;;;7.50;4.15;;;;;;;;;;5035144;28;20068;-72
2022/04/23 12:43:28;;;;;;;7.22;3.13;;;;;;;;;;5035045;28;20037;-72
2022/04/23 12:46:05;;;;;;;11.73;8.15;;;;;;;;;;5035325;28;20087;-74
2022/04/23 12:48:56;;;;;;;6.45;3.28;;;;;;;;;;5035216;28;20088;-74
2022/04/23 12:51:33;;;;;;;7.20;3.65;;;;;;;;;;5035422;28;20096;-74
2022/04/23 12:54:13;;;;;;;3.97;2.70;;;;;;;;;;5034684;28;20041;-74
2022/04/23 12:56:55;;;;;;;5.38;2.70;;;;;;;;;;5034802;28;20481;-73
2022/04/23 12:59:22;;;;;;;4.32;3.00;;;;;;;;;;5027895;28;20046;-74
2022/04/23 13:01:57;;;;;;;7.03;2.67;;;;;;;;;;5015118;28;20500;-74
2022/04/23 13:04:32;;;;;;;;;;;;;;;;;;5015305;28;20070;-74
2022/04/23 13:09:51;;;;;;;6.95;3.03;;;;;;;;;;5014007;28;20038;-74
2022/04/23 13:12:19;;;;;;;3.38;2.05;;;;;;;;;;4996102;28;20563;-74
2022/04/23 13:14:51;;;;;;;4.93;2.78;;;;;;;;;;5014876;28;20046;-74
2022/04/23 13:17:20;;;;;;;4.68;2.35;;;;;;;;;;5014287;28;20061;-74
2022/04/23 13:19:50;;;;;;;7.47;2.42;;;;;;;;;;5015031;28;20060;-74
2022/04/23 13:22:18;;;;;;;5.15;2.17;;;;;;;;;;5014687;28;20496;-74
2022/04/23 13:24:50;;;;;;;4.82;2.17;;;;;;;;;;5014951;28;20046;-74
2022/04/23 13:27:19;;;;;;;5.57;2.33;;;;;;;;;;5014940;28;20072;-74
2022/04/23 13:29:48;;;;;;;5.55;2.25;;;;;;;;;;5014668;28;20052;-74
2022/04/23 13:32:21;;;;;;;4.13;2.13;;;;;;;;;;5014768;28;20042;-73
2022/04/23 13:34:48;;;;;;;7.50;2.20;;;;;;;;;;5071557;22;20088;-73
2022/04/23 13:37:16;;;;;;;4.20;2.10;;;;;;;;;;5014540;28;20048;-74
2022/04/23 13:39:44;;;;;;;5.07;2.10;;;;;;;;;;5014158;28;20058;-74
2022/04/23 13:42:11;;;;;;;6.60;3.50;;;;;;;;;;5014536;28;20088;-74
2022/04/23 13:44:40;;;;;;;5.82;1.92;;;;;;;;;;5014549;28;20053;-73
2022/04/23 13:47:07;;;;;;;4.40;2.13;;;;;;;;;;4996823;28;20124;-73
2022/04/23 13:49:35;;;;;;;2.72;1.80;;;;;;;;;;5014010;28;20050;-73
2022/04/23 13:52:04;;;;;;;4.85;2.58;;;;;;;;;;5014315;28;20041;-73
2022/04/23 13:54:36;;;;;;;5.22;2.33;;;;;;;;;;5013995;28;20049;-73
2022/04/23 13:57:06;;;;;;;5.15;1.98;;;;;;;;;;5014543;28;20049;-73
2022/04/23 13:59:34;;;;;;;3.72;2.10;;;;;;;;;;5013921;28;20060;-74
2022/04/23 14:10:35;;;;;;;4.10;2.13;;;;;;;;;;5013703;28;20457;-75
2022/04/23 14:13:03;;;;;;;12.10;8.35;;;;;;;;;;5013645;28;20050;-73
2022/04/23 14:15:30;;;;;;;7.40;5.10;;;;;;;;;;5013939;28;20447;-73
2022/04/23 14:18:00;;;;;;;14.65;12.98;;;;;;;;;;5013365;28;20068;-74
2022/04/23 14:20:28;;;;;;;8.20;5.70;;;;;;;;;;5012758;28;20045;-71
2022/04/23 14:23:01;;;;;;;4.55;2.53;;;;;;;;;;5014086;28;20045;-74
2022/04/23 14:25:34;;;;;;;4.15;1.70;;;;;;;;;;5013278;28;20042;-72
2022/04/23 14:28:04;;;;;;;13.43;8.40;;;;;;;;;;5013386;28;20108;-72
2022/04/23 14:30:31;;;;;;;3.35;1.35;;;;;;;;;;4996057;28;20100;-72
2022/04/23 14:33:24;;;;;;;4.97;2.00;;;;;;;;;;5012928;28;20073;-74
2022/04/23 14:36:16;;;;;;;4.18;1.60;;;;;;;;;;4994998;28;20089;-73
2022/04/23 14:38:46;;;;;;;3.40;1.75;;;;;;;;;;5014188;28;20056;-75
2022/04/23 14:41:16;;;;;;;4.18;2.25;;;;;;;;;;5013641;28;20056;-77
2022/04/23 14:43:44;;;;;;;2.40;1.33;;;;;;;;;;5013402;28;20403;-77
2022/04/23 14:46:14;;;;;;;5.10;1.95;;;;;;;;;;5013326;28;20045;-75
2022/04/23 14:48:48;;;;;;;2.78;1.60;;;;;;;;;;5013418;28;20459;-77
2022/04/23 14:54:03;;;;;;;3.67;1.75;;;;;;;;;;5012309;28;20100;-75
2022/04/23 14:56:32;;;;;;;4.60;1.95;;;;;;;;;;5013056;28;20042;-75
2022/04/23 14:59:08;;;;;;;3.45;1.20;;;;;;;;;;5013574;28;20038;-77
2022/04/23 15:01:39;;;;;;;4.68;2.13;;;;;;;;;;5013025;28;20041;-74
2022/04/23 15:04:32;;;;;;;6.32;2.30;;;;;;;;;;5013631;28;20510;-70
2022/04/23 15:07:06;;;;;;;2.92;1.33;;;;;;;;;;5012062;28;20096;-71
2022/04/23 15:09:34;;;;;;;2.75;1.30;;;;;;;;;;5013227;28;20477;-73
2022/04/23 15:12:04;;;;;;;2.58;1.40;;;;;;;;;;5013474;28;20042;-71
2022/04/23 15:14:33;;;;;;;3.28;1.35;;;;;;;;;;5013089;28;20042;-73
2022/04/23 15:17:03;;;;;;;7.63;3.08;;;;;;;;;;4993613;28;20054;-71
2022/04/23 15:19:38;;;;;;;3.25;1.60;;;;;;;;;;4993984;28;20043;-72
2022/04/23 15:22:06;;;;;;;2.72;1.05;;;;;;;;;;4993384;28;20042;-70
2022/04/23 15:24:33;;;;;;;3.30;0.95;;;;;;;;;;4996298;28;20040;-71
2022/04/23 15:27:26;;;;;;;1.58;1.20;;;;;;;;;;5013045;28;20046;-75
2022/04/23 15:29:54;;;;;;;4.53;1.10;;;;;;;;;;5013026;28;20133;-70
2022/04/23 15:32:26;;;;;;;3.90;1.10;;;;;;;;;;5071088;23;20063;-70
2022/04/23 15:34:54;;;;;;;2.78;1.20;;;;;;;;;;4995678;28;20057;-69
2022/04/23 15:37:21;;;;;;;2.75;1.17;;;;;;;;;;5013068;28;20042;-70
2022/04/23 15:39:49;;;;;;;2.80;1.25;;;;;;;;;;5013258;28;20049;-71
2022/04/23 15:42:16;;;;;;;2.58;1.33;;;;;;;;;;5015659;28;20121;-70
2022/04/23 15:44:47;;;;;;;6.10;4.53;;;;;;;;;;5016632;28;20049;-72
2022/04/23 15:47:19;;;;;;;2.20;1.42;;;;;;;;;;5016483;28;20038;-71
2022/04/23 15:49:47;;;;;;;3.03;2.03;;;;;;;;;;5016682;28;20436;-69
2022/04/23 15:52:16;;;;;;;5.80;2.40;;;;;;;;;;5016249;28;20496;-69
2022/04/23 15:54:46;;;;;;;3.03;1.30;;;;;;;;;;5016313;28;20050;-70
2022/04/23 15:57:14;;;;;;;4.90;1.27;;;;;;;;;;5016324;28;20041;-70
2022/04/23 15:59:43;;;;;;;2.72;1.58;;;;;;;;;;4997173;28;20388;-70
2022/04/23 16:02:13;;;;;;;2.10;1.10;;;;;;;;;;4996531;28;20043;-70
2022/04/23 16:04:41;;;;;;;1.95;1.10;;;;;;;;;;4996328;28;20050;-70